sensor_id;sensor_type;location;lat;lon;timestamp;temperature;humidity
51579;DHT22;47998;53.242;6.386;2022-07-21T00:00:40;18.40;99.90
51579;DHT22;47998;53.242;6.386;2022-07-21T00:03:06;18.50;99.90
51579;DHT22;47998;53.242;6.386;2022-07-21T00:05:31;18.50;96.40
51579;DHT22;47998;53.242;6.386;2022-07-21T00:07:57;18.60;30.40
51579;DHT22;47998;53.242;6.386;2022-07-21T00:10:25;18.50;9.60
51579;DHT22;47998;53.242;6.386;2022-07-21T00:12:52;18.50;1.00
51579;DHT22;47998;53.242;6.386;2022-07-21T00:15:20;18.50;1.00
51579;DHT22;47998;53.242;6.386;2022-07-21T00:17:46;18.50;48.30
51579;DHT22;47998;53.242;6.386;2022-07-21T00:20:13;18.50;59.50
51579;DHT22;47998;53.242;6.386;2022-07-21T00:22:40;18.50;99.90
51579;DHT22;47998;53.242;6.386;2022-07-21T00:25:07;18.50;97.60
51579;DHT22;47998;53.242;6.386;2022-07-21T00:27:34;18.50;99.90
51579;DHT22;47998;53.242;6.386;2022-07-21T00:30:00;18.50;99.90
51579;DHT22;47998;53.242;6.386;2022-07-21T00:32:26;18.50;99.90
51579;DHT22;47998;53.242;6.386;2022-07-21T00:34:52;18.50;85.70
51579;DHT22;47998;53.242;6.386;2022-07-21T00:37:17;18.60;46.10
51579;DHT22;47998;53.242;6.386;2022-07-21T00:39:43;18.60;33.20
51579;DHT22;47998;53.242;6.386;2022-07-21T00:42:23;18.70;1.00
51579;DHT22;47998;53.242;6.386;2022-07-21T00:44:49;18.70;1.00
51579;DHT22;47998;53.242;6.386;2022-07-21T00:47:18;18.70;1.00
51579;DHT22;47998;53.242;6.386;2022-07-21T00:49:43;18.70;1.00
51579;DHT22;47998;53.242;6.386;2022-07-21T00:52:10;18.70;1.00
51579;DHT22;47998;53.242;6.386;2022-07-21T00:54:36;18.70;1.00
51579;DHT22;47998;53.242;6.386;2022-07-21T00:57:02;18.80;1.00
51579;DHT22;47998;53.242;6.386;2022-07-21T00:59:29;18.80;1.00
51579;DHT22;47998;53.242;6.386;2022-07-21T01:01:55;18.70;1.00
51579;DHT22;47998;53.242;6.386;2022-07-21T01:04:21;18.80;1.00
51579;DHT22;47998;53.242;6.386;2022-07-21T01:06:47;18.80;1.00
51579;DHT22;47998;53.242;6.386;2022-07-21T01:09:13;18.80;1.00
51579;DHT22;47998;53.242;6.386;2022-07-21T01:11:39;18.80;1.00
51579;DHT22;47998;53.242;6.386;2022-07-21T01:14:05;18.80;99.90
51579;DHT22;47998;53.242;6.386;2022-07-21T01:16:31;18.60;99.90
51579;DHT22;47998;53.242;6.386;2022-07-21T01:18:57;18.40;1.00
51579;DHT22;47998;53.242;6.386;2022-07-21T01:21:34;18.30;1.00
51579;DHT22;47998;53.242;6.386;2022-07-21T01:24:01;18.30;1.00
51579;DHT22;47998;53.242;6.386;2022-07-21T01:26:28;18.20;41.80
51579;DHT22;47998;53.242;6.386;2022-07-21T01:28:55;18.20;99.90
51579;DHT22;47998;53.242;6.386;2022-07-21T01:31:20;18.20;99.90
51579;DHT22;47998;53.242;6.386;2022-07-21T01:33:47;18.20;99.90
51579;DHT22;47998;53.242;6.386;2022-07-21T01:36:13;18.20;99.90
51579;DHT22;47998;53.242;6.386;2022-07-21T01:38:38;18.20;99.90
51579;DHT22;47998;53.242;6.386;2022-07-21T01:41:22;18.20;99.90
51579;DHT22;47998;53.242;6.386;2022-07-21T01:43:55;18.10;99.90
51579;DHT22;47998;53.242;6.386;2022-07-21T01:46:21;18.20;1.00
51579;DHT22;47998;53.242;6.386;2022-07-21T01:48:47;18.10;1.00
51579;DHT22;47998;53.242;6.386;2022-07-21T01:51:13;18.10;1.00
51579;DHT22;47998;53.242;6.386;2022-07-21T01:53:39;18.10;1.00
51579;DHT22;47998;53.242;6.386;2022-07-21T01:56:06;18.10;1.00
51579;DHT22;47998;53.242;6.386;2022-07-21T01:58:32;18.10;1.00
51579;DHT22;47998;53.242;6.386;2022-07-21T02:00:58;18.00;20.00
51579;DHT22;47998;53.242;6.386;2022-07-21T02:03:24;18.00;33.40
51579;DHT22;47998;53.242;6.386;2022-07-21T02:05:49;18.00;54.60
51579;DHT22;47998;53.242;6.386;2022-07-21T02:08:15;18.00;99.90
51579;DHT22;47998;53.242;6.386;2022-07-21T02:10:41;18.00;99.90
51579;DHT22;47998;53.242;6.386;2022-07-21T02:13:07;18.00;99.90
51579;DHT22;47998;53.242;6.386;2022-07-21T02:15:32;18.00;99.90
51579;DHT22;47998;53.242;6.386;2022-07-21T02:17:59;18.00;99.90
51579;DHT22;47998;53.242;6.386;2022-07-21T02:20:25;18.00;99.90
51579;DHT22;47998;53.242;6.386;2022-07-21T02:22:52;17.90;99.90
51579;DHT22;47998;53.242;6.386;2022-07-21T02:25:18;17.90;99.90
51579;DHT22;47998;53.242;6.386;2022-07-21T02:27:45;17.90;99.90
51579;DHT22;47998;53.242;6.386;2022-07-21T02:30:13;17.90;99.90
51579;DHT22;47998;53.242;6.386;2022-07-21T02:32:39;17.90;99.90
51579;DHT22;47998;53.242;6.386;2022-07-21T02:35:05;17.80;99.90
51579;DHT22;47998;53.242;6.386;2022-07-21T02:37:31;17.80;99.90
51579;DHT22;47998;53.242;6.386;2022-07-21T02:39:57;17.70;99.90
51579;DHT22;47998;53.242;6.386;2022-07-21T02:42:23;17.70;99.90
51579;DHT22;47998;53.242;6.386;2022-07-21T02:44:48;17.70;99.90
51579;DHT22;47998;53.242;6.386;2022-07-21T02:47:14;17.70;99.90
51579;DHT22;47998;53.242;6.386;2022-07-21T02:49:40;17.70;99.90
51579;DHT22;47998;53.242;6.386;2022-07-21T02:52:06;17.70;99.90
51579;DHT22;47998;53.242;6.386;2022-07-21T02:54:32;17.70;99.90
51579;DHT22;47998;53.242;6.386;2022-07-21T02:56:57;17.70;99.90
51579;DHT22;47998;53.242;6.386;2022-07-21T02:59:23;17.70;99.90
51579;DHT22;47998;53.242;6.386;2022-07-21T03:01:49;17.70;99.90
51579;DHT22;47998;53.242;6.386;2022-07-21T03:04:15;17.70;99.90
51579;DHT22;47998;53.242;6.386;2022-07-21T03:06:41;17.80;99.90
51579;DHT22;47998;53.242;6.386;2022-07-21T03:09:08;17.70;99.90
51579;DHT22;47998;53.242;6.386;2022-07-21T03:11:35;17.80;99.90
51579;DHT22;47998;53.242;6.386;2022-07-21T03:14:01;17.70;99.90
51579;DHT22;47998;53.242;6.386;2022-07-21T03:16:26;17.80;99.90
51579;DHT22;47998;53.242;6.386;2022-07-21T03:18:52;17.80;99.90
51579;DHT22;47998;53.242;6.386;2022-07-21T03:21:18;17.80;99.90
51579;DHT22;47998;53.242;6.386;2022-07-21T03:23:44;17.80;99.90
51579;DHT22;47998;53.242;6.386;2022-07-21T03:26:15;17.80;99.90
51579;DHT22;47998;53.242;6.386;2022-07-21T03:28:42;17.80;99.90
51579;DHT22;47998;53.242;6.386;2022-07-21T03:31:08;17.90;99.90
51579;DHT22;47998;53.242;6.386;2022-07-21T03:33:34;17.90;99.90
51579;DHT22;47998;53.242;6.386;2022-07-21T03:36:01;18.00;99.90
51579;DHT22;47998;53.242;6.386;2022-07-21T03:38:27;17.90;99.90
51579;DHT22;47998;53.242;6.386;2022-07-21T03:40:52;17.90;99.90
51579;DHT22;47998;53.242;6.386;2022-07-21T03:43:19;18.00;99.90
51579;DHT22;47998;53.242;6.386;2022-07-21T03:45:45;18.00;99.90
51579;DHT22;47998;53.242;6.386;2022-07-21T03:48:12;18.00;99.90
51579;DHT22;47998;53.242;6.386;2022-07-21T03:50:40;18.00;99.90
51579;DHT22;47998;53.242;6.386;2022-07-21T03:53:07;18.00;99.90
51579;DHT22;47998;53.242;6.386;2022-07-21T03:55:33;18.10;99.90
51579;DHT22;47998;53.242;6.386;2022-07-21T03:58:01;18.00;99.90
51579;DHT22;47998;53.242;6.386;2022-07-21T04:00:33;18.00;99.90
51579;DHT22;47998;53.242;6.386;2022-07-21T04:03:00;18.10;99.90
51579;DHT22;47998;53.242;6.386;2022-07-21T04:05:26;18.10;99.90
51579;DHT22;47998;53.242;6.386;2022-07-21T04:07:53;18.10;99.90
51579;DHT22;47998;53.242;6.386;2022-07-21T04:10:21;18.10;99.90
51579;DHT22;47998;53.242;6.386;2022-07-21T04:12:48;18.10;99.90
51579;DHT22;47998;53.242;6.386;2022-07-21T04:15:14;18.10;99.90
51579;DHT22;47998;53.242;6.386;2022-07-21T04:17:40;18.00;99.90
51579;DHT22;47998;53.242;6.386;2022-07-21T04:20:07;18.00;99.90
51579;DHT22;47998;53.242;6.386;2022-07-21T04:22:34;18.00;99.90
51579;DHT22;47998;53.242;6.386;2022-07-21T04:25:00;18.10;99.90
51579;DHT22;47998;53.242;6.386;2022-07-21T04:27:26;18.10;99.90
51579;DHT22;47998;53.242;6.386;2022-07-21T04:29:52;18.00;99.90
51579;DHT22;47998;53.242;6.386;2022-07-21T04:32:18;18.00;99.90
51579;DHT22;47998;53.242;6.386;2022-07-21T04:34:43;18.00;99.90
51579;DHT22;47998;53.242;6.386;2022-07-21T04:37:09;18.10;99.90
51579;DHT22;47998;53.242;6.386;2022-07-21T04:39:35;18.00;99.90
51579;DHT22;47998;53.242;6.386;2022-07-21T04:42:01;18.10;99.90
51579;DHT22;47998;53.242;6.386;2022-07-21T04:44:26;18.10;99.90
51579;DHT22;47998;53.242;6.386;2022-07-21T04:46:52;18.10;99.90
51579;DHT22;47998;53.242;6.386;2022-07-21T04:49:18;18.10;99.90
51579;DHT22;47998;53.242;6.386;2022-07-21T04:51:43;18.20;99.90
51579;DHT22;47998;53.242;6.386;2022-07-21T04:54:09;18.30;99.90
51579;DHT22;47998;53.242;6.386;2022-07-21T04:56:35;18.30;99.90
51579;DHT22;47998;53.242;6.386;2022-07-21T04:59:02;18.30;99.90
51579;DHT22;47998;53.242;6.386;2022-07-21T05:01:28;18.30;99.90
51579;DHT22;47998;53.242;6.386;2022-07-21T05:03:54;18.40;99.90
51579;DHT22;47998;53.242;6.386;2022-07-21T05:06:19;18.30;99.90
51579;DHT22;47998;53.242;6.386;2022-07-21T05:08:45;18.40;99.90
51579;DHT22;47998;53.242;6.386;2022-07-21T05:11:11;18.40;99.90
51579;DHT22;47998;53.242;6.386;2022-07-21T05:13:36;18.40;99.90
51579;DHT22;47998;53.242;6.386;2022-07-21T05:16:02;18.50;99.90
51579;DHT22;47998;53.242;6.386;2022-07-21T05:18:28;18.40;99.90
51579;DHT22;47998;53.242;6.386;2022-07-21T05:20:54;18.60;99.90
51579;DHT22;47998;53.242;6.386;2022-07-21T05:23:19;18.60;99.90
51579;DHT22;47998;53.242;6.386;2022-07-21T05:25:45;18.60;99.90
51579;DHT22;47998;53.242;6.386;2022-07-21T05:28:11;18.60;99.90
51579;DHT22;47998;53.242;6.386;2022-07-21T05:30:36;18.60;99.90
51579;DHT22;47998;53.242;6.386;2022-07-21T05:33:02;18.60;99.90
51579;DHT22;47998;53.242;6.386;2022-07-21T05:35:28;18.60;99.90
51579;DHT22;47998;53.242;6.386;2022-07-21T05:37:54;18.50;99.90
51579;DHT22;47998;53.242;6.386;2022-07-21T05:40:19;18.40;99.90
51579;DHT22;47998;53.242;6.386;2022-07-21T05:42:45;18.40;99.90
51579;DHT22;47998;53.242;6.386;2022-07-21T05:45:11;18.30;99.90
51579;DHT22;47998;53.242;6.386;2022-07-21T05:47:37;18.20;99.90
51579;DHT22;47998;53.242;6.386;2022-07-21T05:50:03;18.20;99.90
51579;DHT22;47998;53.242;6.386;2022-07-21T05:52:29;18.20;99.90
51579;DHT22;47998;53.242;6.386;2022-07-21T05:54:55;18.20;99.90
51579;DHT22;47998;53.242;6.386;2022-07-21T05:57:21;18.10;99.90
51579;DHT22;47998;53.242;6.386;2022-07-21T05:59:46;18.20;99.90
51579;DHT22;47998;53.242;6.386;2022-07-21T06:02:12;18.20;99.90
51579;DHT22;47998;53.242;6.386;2022-07-21T06:04:38;18.20;99.90
51579;DHT22;47998;53.242;6.386;2022-07-21T06:07:04;18.20;99.90
51579;DHT22;47998;53.242;6.386;2022-07-21T06:09:30;18.30;99.90
51579;DHT22;47998;53.242;6.386;2022-07-21T06:11:55;18.30;99.90
51579;DHT22;47998;53.242;6.386;2022-07-21T06:14:21;18.30;99.90
51579;DHT22;47998;53.242;6.386;2022-07-21T06:16:48;18.30;99.90
51579;DHT22;47998;53.242;6.386;2022-07-21T06:19:14;18.30;99.90
51579;DHT22;47998;53.242;6.386;2022-07-21T06:21:39;18.30;99.90
51579;DHT22;47998;53.242;6.386;2022-07-21T06:24:07;18.40;99.90
51579;DHT22;47998;53.242;6.386;2022-07-21T06:26:33;18.30;99.90
51579;DHT22;47998;53.242;6.386;2022-07-21T06:28:59;18.40;99.90
51579;DHT22;47998;53.242;6.386;2022-07-21T06:31:25;18.30;99.90
51579;DHT22;47998;53.242;6.386;2022-07-21T06:33:51;18.40;99.90
51579;DHT22;47998;53.242;6.386;2022-07-21T06:36:16;18.40;99.90
51579;DHT22;47998;53.242;6.386;2022-07-21T06:38:42;18.40;99.90
51579;DHT22;47998;53.242;6.386;2022-07-21T06:41:10;18.30;99.90
51579;DHT22;47998;53.242;6.386;2022-07-21T06:43:36;18.30;99.90
51579;DHT22;47998;53.242;6.386;2022-07-21T06:46:02;18.20;99.90
51579;DHT22;47998;53.242;6.386;2022-07-21T06:48:28;18.30;99.90
51579;DHT22;47998;53.242;6.386;2022-07-21T06:50:54;18.30;99.90
51579;DHT22;47998;53.242;6.386;2022-07-21T06:53:21;18.30;99.90
51579;DHT22;47998;53.242;6.386;2022-07-21T06:55:47;18.40;99.90
51579;DHT22;47998;53.242;6.386;2022-07-21T06:58:16;18.30;99.90
51579;DHT22;47998;53.242;6.386;2022-07-21T07:00:45;18.40;99.90
51579;DHT22;47998;53.242;6.386;2022-07-21T07:03:12;18.40;99.90
51579;DHT22;47998;53.242;6.386;2022-07-21T07:05:38;18.40;99.90
51579;DHT22;47998;53.242;6.386;2022-07-21T07:08:04;18.40;99.90
51579;DHT22;47998;53.242;6.386;2022-07-21T07:10:30;18.50;99.90
51579;DHT22;47998;53.242;6.386;2022-07-21T07:12:56;18.60;99.90
51579;DHT22;47998;53.242;6.386;2022-07-21T07:15:23;18.70;99.90
51579;DHT22;47998;53.242;6.386;2022-07-21T07:17:50;18.70;99.90
51579;DHT22;47998;53.242;6.386;2022-07-21T07:20:17;18.80;99.90
51579;DHT22;47998;53.242;6.386;2022-07-21T07:22:43;18.70;99.90
51579;DHT22;47998;53.242;6.386;2022-07-21T07:25:09;18.80;99.90
51579;DHT22;47998;53.242;6.386;2022-07-21T07:27:35;19.00;99.90
51579;DHT22;47998;53.242;6.386;2022-07-21T07:30:01;19.10;99.90
51579;DHT22;47998;53.242;6.386;2022-07-21T07:32:27;19.20;99.90
51579;DHT22;47998;53.242;6.386;2022-07-21T07:34:53;19.40;99.90
51579;DHT22;47998;53.242;6.386;2022-07-21T07:37:19;19.50;99.90
51579;DHT22;47998;53.242;6.386;2022-07-21T07:39:44;19.40;99.90
51579;DHT22;47998;53.242;6.386;2022-07-21T07:42:10;19.50;99.90
51579;DHT22;47998;53.242;6.386;2022-07-21T07:44:36;19.60;99.90
51579;DHT22;47998;53.242;6.386;2022-07-21T07:47:02;19.60;99.90
51579;DHT22;47998;53.242;6.386;2022-07-21T07:49:31;19.70;99.90
51579;DHT22;47998;53.242;6.386;2022-07-21T07:51:58;19.80;99.90
51579;DHT22;47998;53.242;6.386;2022-07-21T07:54:24;19.80;99.90
51579;DHT22;47998;53.242;6.386;2022-07-21T07:56:50;19.90;58.40
51579;DHT22;47998;53.242;6.386;2022-07-21T07:59:16;20.00;9.50
51579;DHT22;47998;53.242;6.386;2022-07-21T08:01:42;19.90;1.00
51579;DHT22;47998;53.242;6.386;2022-07-21T08:04:07;20.00;1.00
51579;DHT22;47998;53.242;6.386;2022-07-21T08:06:33;20.10;1.00
51579;DHT22;47998;53.242;6.386;2022-07-21T08:08:59;20.10;1.00
51579;DHT22;47998;53.242;6.386;2022-07-21T08:11:25;20.20;99.90
51579;DHT22;47998;53.242;6.386;2022-07-21T08:13:51;20.30;99.90
51579;DHT22;47998;53.242;6.386;2022-07-21T08:16:17;20.30;99.90
51579;DHT22;47998;53.242;6.386;2022-07-21T08:18:43;20.30;1.00
51579;DHT22;47998;53.242;6.386;2022-07-21T08:21:10;20.40;99.90
51579;DHT22;47998;53.242;6.386;2022-07-21T08:23:36;20.20;99.90
51579;DHT22;47998;53.242;6.386;2022-07-21T08:26:03;20.10;99.90
51579;DHT22;47998;53.242;6.386;2022-07-21T08:28:28;20.10;99.90
51579;DHT22;47998;53.242;6.386;2022-07-21T08:30:54;20.20;99.90
51579;DHT22;47998;53.242;6.386;2022-07-21T08:33:20;20.20;90.90
51579;DHT22;47998;53.242;6.386;2022-07-21T08:35:46;20.20;6.70
51579;DHT22;47998;53.242;6.386;2022-07-21T08:38:11;20.20;1.00
51579;DHT22;47998;53.242;6.386;2022-07-21T08:40:40;20.20;42.80
51579;DHT22;47998;53.242;6.386;2022-07-21T08:43:06;20.20;1.00
51579;DHT22;47998;53.242;6.386;2022-07-21T08:45:34;20.30;1.00
51579;DHT22;47998;53.242;6.386;2022-07-21T08:48:00;20.30;1.00
51579;DHT22;47998;53.242;6.386;2022-07-21T08:50:30;20.40;1.00
51579;DHT22;47998;53.242;6.386;2022-07-21T08:52:56;20.50;1.00
51579;DHT22;47998;53.242;6.386;2022-07-21T08:55:23;20.50;1.00
51579;DHT22;47998;53.242;6.386;2022-07-21T08:57:49;20.50;99.90
51579;DHT22;47998;53.242;6.386;2022-07-21T09:00:15;20.50;99.90
51579;DHT22;47998;53.242;6.386;2022-07-21T09:02:40;20.50;1.00
51579;DHT22;47998;53.242;6.386;2022-07-21T09:05:08;20.40;99.90
51579;DHT22;47998;53.242;6.386;2022-07-21T09:07:52;20.50;1.00
51579;DHT22;47998;53.242;6.386;2022-07-21T09:10:26;20.60;1.00
51579;DHT22;47998;53.242;6.386;2022-07-21T09:12:54;20.70;1.00
51579;DHT22;47998;53.242;6.386;2022-07-21T09:15:22;20.80;1.00
51579;DHT22;47998;53.242;6.386;2022-07-21T09:18:11;20.80;99.90
51579;DHT22;47998;53.242;6.386;2022-07-21T09:20:46;20.80;99.90
51579;DHT22;47998;53.242;6.386;2022-07-21T09:23:18;20.70;99.90
51579;DHT22;47998;53.242;6.386;2022-07-21T09:28:25;20.60;99.90
51579;DHT22;47998;53.242;6.386;2022-07-21T09:31:01;20.50;99.90
51579;DHT22;47998;53.242;6.386;2022-07-21T09:33:42;20.40;1.00
51579;DHT22;47998;53.242;6.386;2022-07-21T09:36:18;20.20;1.00
51579;DHT22;47998;53.242;6.386;2022-07-21T09:41:19;20.10;1.00
51579;DHT22;47998;53.242;6.386;2022-07-21T09:43:47;20.10;1.00
51579;DHT22;47998;53.242;6.386;2022-07-21T09:46:22;20.20;23.90
51579;DHT22;47998;53.242;6.386;2022-07-21T09:48:54;20.20;40.70
51579;DHT22;47998;53.242;6.386;2022-07-21T09:51:33;20.20;46.90
51579;DHT22;47998;53.242;6.386;2022-07-21T09:54:08;20.20;56.20
51579;DHT22;47998;53.242;6.386;2022-07-21T09:56:36;20.10;1.00
51579;DHT22;47998;53.242;6.386;2022-07-21T09:59:05;20.10;1.00
51579;DHT22;47998;53.242;6.386;2022-07-21T10:01:31;20.00;1.00
51579;DHT22;47998;53.242;6.386;2022-07-21T10:03:59;19.80;1.00
51579;DHT22;47998;53.242;6.386;2022-07-21T10:06:30;19.80;1.00
51579;DHT22;47998;53.242;6.386;2022-07-21T10:08:57;19.80;57.70
51579;DHT22;47998;53.242;6.386;2022-07-21T10:11:24;19.80;99.90
51579;DHT22;47998;53.242;6.386;2022-07-21T10:13:51;19.70;99.90
51579;DHT22;47998;53.242;6.386;2022-07-21T10:16:19;19.70;99.90
51579;DHT22;47998;53.242;6.386;2022-07-21T10:18:55;19.80;99.90
51579;DHT22;47998;53.242;6.386;2022-07-21T10:24:38;19.80;99.90
51579;DHT22;47998;53.242;6.386;2022-07-21T10:27:09;19.80;99.90
51579;DHT22;47998;53.242;6.386;2022-07-21T10:32:19;19.70;99.90
51579;DHT22;47998;53.242;6.386;2022-07-21T10:34:45;19.70;99.90
51579;DHT22;47998;53.242;6.386;2022-07-21T10:40:33;19.60;99.90
51579;DHT22;47998;53.242;6.386;2022-07-21T10:45:34;19.60;99.90
51579;DHT22;47998;53.242;6.386;2022-07-21T10:48:01;19.60;99.90
51579;DHT22;47998;53.242;6.386;2022-07-21T10:50:35;19.60;99.90
51579;DHT22;47998;53.242;6.386;2022-07-21T10:55:37;19.60;99.90
51579;DHT22;47998;53.242;6.386;2022-07-21T10:58:33;19.70;99.90
51579;DHT22;47998;53.242;6.386;2022-07-21T11:03:35;19.80;99.90
51579;DHT22;47998;53.242;6.386;2022-07-21T11:08:35;19.90;99.90
51579;DHT22;47998;53.242;6.386;2022-07-21T11:11:25;19.90;99.90
51579;DHT22;47998;53.242;6.386;2022-07-21T11:22:28;20.40;99.90
51579;DHT22;47998;53.242;6.386;2022-07-21T11:25:06;20.60;20.80
51579;DHT22;47998;53.242;6.386;2022-07-21T11:27:36;21.00;33.10
51579;DHT22;47998;53.242;6.386;2022-07-21T11:30:09;21.20;1.00
51579;DHT22;47998;53.242;6.386;2022-07-21T11:32:35;21.50;99.90
51579;DHT22;47998;53.242;6.386;2022-07-21T11:35:03;21.70;99.90
51579;DHT22;47998;53.242;6.386;2022-07-21T11:37:33;21.70;1.00
51579;DHT22;47998;53.242;6.386;2022-07-21T11:40:00;21.60;99.30
51579;DHT22;47998;53.242;6.386;2022-07-21T11:42:27;21.40;96.90
51579;DHT22;47998;53.242;6.386;2022-07-21T11:44:54;21.30;1.00
51579;DHT22;47998;53.242;6.386;2022-07-21T11:47:19;21.30;76.90
51579;DHT22;47998;53.242;6.386;2022-07-21T11:49:52;21.30;52.30
51579;DHT22;47998;53.242;6.386;2022-07-21T11:52:18;21.20;1.00
51579;DHT22;47998;53.242;6.386;2022-07-21T11:54:52;21.20;1.00
51579;DHT22;47998;53.242;6.386;2022-07-21T11:57:21;21.20;1.00
51579;DHT22;47998;53.242;6.386;2022-07-21T11:59:48;21.10;1.00
51579;DHT22;47998;53.242;6.386;2022-07-21T12:02:17;21.10;99.90
51579;DHT22;47998;53.242;6.386;2022-07-21T12:04:50;21.10;99.90
51579;DHT22;47998;53.242;6.386;2022-07-21T12:07:45;21.10;99.90
51579;DHT22;47998;53.242;6.386;2022-07-21T12:10:23;20.90;99.90
51579;DHT22;47998;53.242;6.386;2022-07-21T12:12:49;20.80;99.90
51579;DHT22;47998;53.242;6.386;2022-07-21T12:15:20;20.80;1.00
51579;DHT22;47998;53.242;6.386;2022-07-21T12:17:51;20.70;1.00
51579;DHT22;47998;53.242;6.386;2022-07-21T12:21:02;20.70;1.00
51579;DHT22;47998;53.242;6.386;2022-07-21T12:23:30;20.60;98.80
51579;DHT22;47998;53.242;6.386;2022-07-21T12:26:01;20.50;96.30
51579;DHT22;47998;53.242;6.386;2022-07-21T12:28:47;20.30;99.90
51579;DHT22;47998;53.242;6.386;2022-07-21T12:31:18;20.10;99.90
51579;DHT22;47998;53.242;6.386;2022-07-21T12:33:51;20.10;99.90
51579;DHT22;47998;53.242;6.386;2022-07-21T12:36:19;20.10;99.90
51579;DHT22;47998;53.242;6.386;2022-07-21T12:38:48;20.20;1.00
51579;DHT22;47998;53.242;6.386;2022-07-21T12:41:19;20.30;1.00
51579;DHT22;47998;53.242;6.386;2022-07-21T12:43:56;20.50;1.00
51579;DHT22;47998;53.242;6.386;2022-07-21T12:46:28;20.60;99.90
51579;DHT22;47998;53.242;6.386;2022-07-21T12:49:03;20.60;99.90
51579;DHT22;47998;53.242;6.386;2022-07-21T12:51:29;20.60;99.90
51579;DHT22;47998;53.242;6.386;2022-07-21T12:53:55;20.60;99.90
51579;DHT22;47998;53.242;6.386;2022-07-21T12:56:26;20.70;99.90
51579;DHT22;47998;53.242;6.386;2022-07-21T12:58:55;20.80;99.90
51579;DHT22;47998;53.242;6.386;2022-07-21T13:01:22;20.80;99.90
51579;DHT22;47998;53.242;6.386;2022-07-21T13:03:48;20.90;99.90
51579;DHT22;47998;53.242;6.386;2022-07-21T13:06:14;21.20;99.90
51579;DHT22;47998;53.242;6.386;2022-07-21T13:08:45;21.60;1.00
51579;DHT22;47998;53.242;6.386;2022-07-21T13:11:16;21.90;1.00
51579;DHT22;47998;53.242;6.386;2022-07-21T13:13:44;22.00;99.90
51579;DHT22;47998;53.242;6.386;2022-07-21T13:16:11;21.80;99.90
51579;DHT22;47998;53.242;6.386;2022-07-21T13:18:37;22.10;99.90
51579;DHT22;47998;53.242;6.386;2022-07-21T13:21:08;22.40;1.00
51579;DHT22;47998;53.242;6.386;2022-07-21T13:23:34;22.60;99.90
51579;DHT22;47998;53.242;6.386;2022-07-21T13:26:00;22.60;99.90
51579;DHT22;47998;53.242;6.386;2022-07-21T13:28:26;22.60;99.90
51579;DHT22;47998;53.242;6.386;2022-07-21T13:30:52;22.70;99.90
51579;DHT22;47998;53.242;6.386;2022-07-21T13:33:17;22.60;99.90
51579;DHT22;47998;53.242;6.386;2022-07-21T13:35:43;22.40;99.90
51579;DHT22;47998;53.242;6.386;2022-07-21T13:38:09;22.30;99.90
51579;DHT22;47998;53.242;6.386;2022-07-21T13:40:35;22.30;99.90
51579;DHT22;47998;53.242;6.386;2022-07-21T13:43:06;22.30;99.90
51579;DHT22;47998;53.242;6.386;2022-07-21T13:45:36;22.10;99.90
51579;DHT22;47998;53.242;6.386;2022-07-21T13:48:02;22.10;99.90
51579;DHT22;47998;53.242;6.386;2022-07-21T13:50:28;22.00;99.90
51579;DHT22;47998;53.242;6.386;2022-07-21T13:52:53;21.80;99.90
51579;DHT22;47998;53.242;6.386;2022-07-21T13:55:21;21.70;99.90
51579;DHT22;47998;53.242;6.386;2022-07-21T13:57:47;21.70;99.90
51579;DHT22;47998;53.242;6.386;2022-07-21T14:00:14;21.60;99.90
51579;DHT22;47998;53.242;6.386;2022-07-21T14:02:40;21.60;1.00
51579;DHT22;47998;53.242;6.386;2022-07-21T14:05:07;21.70;1.00
51579;DHT22;47998;53.242;6.386;2022-07-21T14:07:32;21.70;99.90
51579;DHT22;47998;53.242;6.386;2022-07-21T14:09:58;21.60;99.90
51579;DHT22;47998;53.242;6.386;2022-07-21T14:12:24;21.60;99.90
51579;DHT22;47998;53.242;6.386;2022-07-21T14:14:49;21.40;99.90
51579;DHT22;47998;53.242;6.386;2022-07-21T14:17:16;21.30;99.90
51579;DHT22;47998;53.242;6.386;2022-07-21T14:19:45;21.10;99.90
51579;DHT22;47998;53.242;6.386;2022-07-21T14:22:13;21.10;99.90
51579;DHT22;47998;53.242;6.386;2022-07-21T14:24:41;21.10;1.00
51579;DHT22;47998;53.242;6.386;2022-07-21T14:27:28;21.10;1.00
51579;DHT22;47998;53.242;6.386;2022-07-21T14:29:56;21.10;1.00
51579;DHT22;47998;53.242;6.386;2022-07-21T14:32:22;21.10;1.00
51579;DHT22;47998;53.242;6.386;2022-07-21T14:34:52;21.10;1.00
51579;DHT22;47998;53.242;6.386;2022-07-21T14:37:20;21.00;1.00
51579;DHT22;47998;53.242;6.386;2022-07-21T14:39:47;20.90;1.00
51579;DHT22;47998;53.242;6.386;2022-07-21T14:42:13;20.90;39.50
51579;DHT22;47998;53.242;6.386;2022-07-21T14:44:39;20.80;55.00
51579;DHT22;47998;53.242;6.386;2022-07-21T14:47:06;20.70;81.30
51579;DHT22;47998;53.242;6.386;2022-07-21T14:49:33;20.70;99.90
51579;DHT22;47998;53.242;6.386;2022-07-21T14:51:59;20.60;92.70
51579;DHT22;47998;53.242;6.386;2022-07-21T14:54:24;20.60;59.80
51579;DHT22;47998;53.242;6.386;2022-07-21T14:56:53;20.60;96.50
51579;DHT22;47998;53.242;6.386;2022-07-21T14:59:18;20.60;99.90
51579;DHT22;47998;53.242;6.386;2022-07-21T15:01:47;20.70;99.90
51579;DHT22;47998;53.242;6.386;2022-07-21T15:04:13;20.80;72.10
51579;DHT22;47998;53.242;6.386;2022-07-21T15:06:41;20.70;92.50
51579;DHT22;47998;53.242;6.386;2022-07-21T15:09:11;20.80;99.90
51579;DHT22;47998;53.242;6.386;2022-07-21T15:15:18;20.70;64.70
51579;DHT22;47998;53.242;6.386;2022-07-21T15:17:43;20.60;99.90
51579;DHT22;47998;53.242;6.386;2022-07-21T15:20:10;20.40;99.90
51579;DHT22;47998;53.242;6.386;2022-07-21T15:22:36;20.70;99.90
51579;DHT22;47998;53.242;6.386;2022-07-21T15:25:02;21.00;99.90
51579;DHT22;47998;53.242;6.386;2022-07-21T15:27:28;21.10;99.90
51579;DHT22;47998;53.242;6.386;2022-07-21T15:29:54;21.00;99.90
51579;DHT22;47998;53.242;6.386;2022-07-21T15:32:20;20.90;99.90
51579;DHT22;47998;53.242;6.386;2022-07-21T15:34:46;20.60;61.80
51579;DHT22;47998;53.242;6.386;2022-07-21T15:37:12;20.50;99.90
51579;DHT22;47998;53.242;6.386;2022-07-21T15:39:38;20.40;99.90
51579;DHT22;47998;53.242;6.386;2022-07-21T15:42:07;20.30;99.90
51579;DHT22;47998;53.242;6.386;2022-07-21T15:44:34;20.20;99.90
51579;DHT22;47998;53.242;6.386;2022-07-21T15:47:00;20.20;99.90
51579;DHT22;47998;53.242;6.386;2022-07-21T15:49:26;20.10;1.00
51579;DHT22;47998;53.242;6.386;2022-07-21T15:51:52;20.00;1.00
51579;DHT22;47998;53.242;6.386;2022-07-21T15:54:18;19.70;87.50
51579;DHT22;47998;53.242;6.386;2022-07-21T15:56:43;19.60;99.20
51579;DHT22;47998;53.242;6.386;2022-07-21T15:59:09;19.40;99.90
51579;DHT22;47998;53.242;6.386;2022-07-21T16:01:53;19.30;1.00
51579;DHT22;47998;53.242;6.386;2022-07-21T16:04:19;19.20;1.00
51579;DHT22;47998;53.242;6.386;2022-07-21T16:06:47;19.10;17.40
51579;DHT22;47998;53.242;6.386;2022-07-21T16:09:13;18.80;99.90
51579;DHT22;47998;53.242;6.386;2022-07-21T16:11:41;18.60;99.90
51579;DHT22;47998;53.242;6.386;2022-07-21T16:14:06;18.60;99.90